Lastourville Airport


Codes: FOOR/LTL
Name: Lastourville Airport
City: Lastourville
Country: Gabon
Elevation: 1585 ft.

Photos at Lastourville Airport


   Photos courtesy of SpottingLog. You can add your own sightings and photos by signing up for a free trial today.



No photos found.

Weather at Lastourville Airport


Time (UTC)DescriptionTempratureWindCloud coverageVisibilityPressureHumidity
21-Feb-2024 03:00Light Rain22°C0 mph, SW99%10000m1008hPa95%
21-Feb-2024 06:00Light Rain22°C2 mph, S99%10000m1009hPa95%
21-Feb-2024 09:00Overcast Clouds28°C2 mph, SW97%10000m1009hPa69%
21-Feb-2024 12:00Overcast Clouds36°C2 mph, NW97%10000m1006hPa38%
21-Feb-2024 15:00Light Rain30°C2 mph, W100%10000m1003hPa57%
21-Feb-2024 18:00Light Rain25°C0 mph, SW98%10000m1006hPa86%
21-Feb-2024 21:00Light Rain23°C2 mph, SW100%10000m1007hPa95%
22-Feb-2024 00:00Overcast Clouds22°C2 mph, S100%10000m1007hPa96%
22-Feb-2024 03:00Light Rain22°C2 mph, SW100%10000m1007hPa97%
22-Feb-2024 06:00Light Rain22°C2 mph, SW99%10000m1009hPa95%
22-Feb-2024 09:00Moderate Rain28°C0 mph, S96%10000m1010hPa72%
22-Feb-2024 12:00Moderate Rain27°C4 mph, SE95%10000m1007hPa80%
22-Feb-2024 15:00Light Rain24°C4 mph, S97%10000m1007hPa87%
22-Feb-2024 18:00Overcast Clouds22°C0 mph, S98%10000m1008hPa95%
22-Feb-2024 21:00Overcast Clouds22°C2 mph, SW100%10000m1010hPa96%
23-Feb-2024 00:00Overcast Clouds22°C2 mph, SW100%10000m1010hPa97%
23-Feb-2024 03:00Overcast Clouds21°C2 mph, SW100%10000m1010hPa98%
23-Feb-2024 06:00Light Rain22°C0 mph, NE100%10000m1011hPa96%
23-Feb-2024 09:00Light Rain22°C2 mph, W100%10000m1012hPa98%
23-Feb-2024 12:00Overcast Clouds27°C4 mph, W100%10000m1010hPa70%
23-Feb-2024 15:00Broken Clouds29°C4 mph, W62%10000m1007hPa55%
23-Feb-2024 18:00Broken Clouds23°C2 mph, W78%10000m1009hPa83%
23-Feb-2024 21:00Overcast Clouds22°C2 mph, W100%10000m1012hPa87%
24-Feb-2024 00:00Overcast Clouds22°C2 mph, W100%10000m1011hPa88%
24-Feb-2024 03:00Overcast Clouds21°C2 mph, SW100%10000m1010hPa89%
24-Feb-2024 06:00Overcast Clouds22°C2 mph, NW100%10000m1011hPa88%
24-Feb-2024 09:00Overcast Clouds27°C4 mph, W100%10000m1013hPa65%
24-Feb-2024 12:00Overcast Clouds32°C4 mph, W100%10000m1009hPa46%
24-Feb-2024 15:00Overcast Clouds31°C2 mph, NW100%10000m1007hPa50%
24-Feb-2024 18:00Light Rain24°C4 mph, NW98%10000m1010hPa88%
24-Feb-2024 21:00Moderate Rain22°C2 mph, SW100%10000m1013hPa95%
25-Feb-2024 00:00Light Rain22°C0 mph, SW100%10000m1012hPa95%
25-Feb-2024 03:00Light Rain22°C2 mph, SE100%10000m1011hPa96%
25-Feb-2024 06:00Light Rain22°C4 mph, SW100%10000m1013hPa97%
25-Feb-2024 09:00Overcast Clouds23°C2 mph, NE100%10000m1014hPa94%
25-Feb-2024 12:00Light Rain27°C2 mph, SE100%10000m1012hPa67%
25-Feb-2024 15:00Light Rain27°C2 mph, SE100%10000m1010hPa67%
25-Feb-2024 18:00Light Rain22°C2 mph, SE100%10000m1012hPa93%
25-Feb-2024 21:00Overcast Clouds22°C2 mph, SW100%10000m1013hPa95%
26-Feb-2024 00:00Overcast Clouds21°C2 mph, S100%10000m1012hPa96%